Terminal Aerodrome Forecast
Issued by NWS

Home | Current Version | Previous Version | Text Only | Print | Product List | Glossary On
Versions: 1 2 3 4 5 6 7 8 9 10 11 12 13 14 15 16 17 18 19 20 21 22 23 24 25 26 27 28
000
FTUS44 KBMX 021734
TAFANB
TAF
KANB 021734Z 0218/0318 22010G17KT 6SM SHRA BR SCT050 BKN150
     FM030000 22012KT P6SM SCT025 OVC200
     FM030600 21012G17KT P6SM BKN025
     FM031200 23012G17KT P6SM VCTS BKN015CB=

USA.gov is the U.S. government's official web portal to all federal, state and local government web resources and services.